Etusivu
METAR-TAF:

METAR-TAF

Lentoasemat :

Ringkøbing-Skjern, Tanska

Leveyspiiri: 56-00N, Pituuspiiri: 008-21E, korkeus merenpinnasta: 5 m

Tämänhetkinen sää

Tämä raportti tehtiin 50 minuuttia sitten, kello 11.50 UTC
Tuuli 11 kn idästä/kaakosta
Lämpötila 12°C
Kosteus 100%
Ilmanpaine 1014 hPa
Näkyvyys: 6000 m
Muutamia pilviä 600 ft:n korkeudessa
Hajonneita pilviä 3000 ft:n korkeudessa
heikkoa sadetta, tihkusadetta

METAR: EKVJ 191150Z 12011KT 6000 -RADZ FEW006 BKN030 12/12 Q1014

Aika: 14:40 (12:40 UTC)

Sääennuste

Tämä raportti tehtiin 3 tuntia ja 47 minuuttia sitten, kello 08.53 UTC
Ennuste voimassa 19. päivästä klo 09 UTC - 19. päivään klo 15 UTC
Tuuli 10 kn idästä/kaakosta
Näkyvyys 10 km tai enemmän
Hajonneita pilviä 3500 ft:n korkeudessa

TAF: EKVJ 190853Z 1909/1915 11010KT 9999 BKN035

Säähavainnot ja -ennusteet yli 4000 lentoasemalta (METAR- ja TAF-raportit).

Käytössä olevat sääasemat on merkitty karttaan keltaisilla ja punaisilla pisteillä.

Aseta hiiri pisteen päälle nähdäksesi sääaseman nimen.

Klikkaa sitten nähdäksesi säähavainnot ja -ennusteet.

Kartan vaihtaminen: klikkaa mustalla rastilla varustettuja vihreitä pisteitä, niin voit zoomata sisään; viivalla varustettua vihreää pistettä, niin voit zoomata ulos tai vihreitä nuolia, niin pääset viereisille kartoille.


METAR-TAF: